Time;durP1;ratioP1;P1;durP2;ratioP2;P2;SDS_P1;SDS_P2;PMS_P1;PMS_P2;Temp;Humidity;BMP_temperature;BMP_pressure;BME280_temperature;BME280_humidity;BME280_pressure;Samples;Min_cycle;Max_cycle;Signal;HPM_P1;HPM_P2
2023/06/05 00:06:06;;;;;;;;;4.00;4.00;;;;;20.44;42.39;101111.06;5053337;28;45858;-82
2023/06/05 00:08:32;;;;;;;;;4.50;4.00;;;;;20.39;43.15;101111.53;5070419;28;45597;-82
2023/06/05 00:10:57;;;;;;;;;5.50;5.00;;;;;20.33;42.76;101103.34;5071412;28;45641;-81
2023/06/05 00:13:23;;;;;;;;;6.00;5.25;;;;;20.29;42.97;101097.50;5061562;28;45631;-83
2023/06/05 00:15:49;;;;;;;;;5.00;3.25;;;;;20.28;42.92;101114.44;5053697;28;45726;-81
2023/06/05 00:18:15;;;;;;;;;5.50;5.00;;;;;20.23;42.95;101111.44;5054241;28;45670;-82
2023/06/05 00:20:40;;;;;;;;;5.25;4.75;;;;;20.23;43.67;101114.09;5054086;28;45584;-83
2023/06/05 00:23:06;;;;;;;;;4.75;4.00;;;;;20.23;43.40;101110.59;5054004;28;45543;-82
2023/06/05 00:25:31;;;;;;;;;5.25;5.00;;;;;20.18;43.53;101100.44;5052829;28;46426;-82
2023/06/05 00:27:57;;;;;;;;;4.00;4.00;;;;;20.16;43.18;101098.91;5053993;28;45698;-82
2023/06/05 00:30:22;;;;;;;;;4.25;4.00;;;;;20.18;42.91;101110.25;5053768;28;45594;-82
2023/06/05 00:32:47;;;;;;;;;2.25;2.25;;;;;20.17;44.29;101111.22;5053400;28;45573;-80
2023/06/05 00:35:13;;;;;;;;;5.25;5.00;;;;;20.09;43.35;101102.22;5053484;28;45994;-82
2023/06/05 00:37:39;;;;;;;;;6.00;6.00;;;;;20.05;43.29;101114.16;5051897;28;45604;-82
2023/06/05 00:40:06;;;;;;;;;5.25;5.25;;;;;20.05;43.62;101116.81;5053887;28;45701;-83
2023/06/05 00:42:31;;;;;;;;;8.00;5.00;;;;;20.00;43.32;101115.63;5053733;28;46311;-83
2023/06/05 00:44:56;;;;;;;;;7.75;6.00;;;;;20.01;43.86;101101.34;5052034;28;46116;-81
2023/06/05 00:50:44;;;;;;;;;6.50;4.50;;;;;19.94;44.14;101103.78;5053682;28;45698;-82
2023/06/05 00:53:09;;;;;;;;;6.00;6.00;;;;;19.88;43.83;101106.25;5053641;28;45519;-83
2023/06/05 00:55:36;;;;;;;;;6.75;6.00;;;;;19.84;43.67;101108.38;5053444;28;46138;-82
2023/06/05 00:58:03;;;;;;;;;7.00;5.00;;;;;19.83;44.42;101108.53;5054208;28;45711;-82
2023/06/05 01:00:28;;;;;;;;;4.25;4.00;;;;;19.75;44.19;101114.66;5054399;28;45908;-82
2023/06/05 01:02:58;;;;;;;;;5.00;4.00;;;;;19.66;44.82;101097.78;5054355;28;45641;-82
2023/06/05 01:05:24;;;;;;;;;6.50;5.75;;;;;19.58;44.60;101094.25;5053284;28;46080;-83
2023/06/05 01:07:50;;;;;;;;;5.75;5.75;;;;;19.57;45.17;101104.03;5053636;28;45920;-82
2023/06/05 01:10:16;;;;;;;;;5.25;4.00;;;;;19.52;45.35;101101.03;5069119;28;45938;-83
2023/06/05 01:13:03;;;;;;;;;6.00;5.00;;;;;19.47;45.35;101099.81;5051795;28;48433;-82
2023/06/05 01:15:29;;;;;;;;;7.00;6.00;;;;;19.41;45.33;101100.41;5053078;28;46063;-82
2023/06/05 01:17:59;;;;;;;;;6.50;4.00;;;;;19.42;45.22;101107.38;5053432;28;45661;-82
2023/06/05 01:20:39;;;;;;;;;5.50;5.00;;;;;19.40;45.20;101104.88;5053546;28;45735;-82
2023/06/05 01:23:08;;;;;;;;;7.75;5.75;;;;;19.37;45.42;101101.69;5053612;28;46898;-81
2023/06/05 01:25:36;;;;;;;;;8.00;6.00;;;;;19.34;44.80;101102.81;5053205;28;46082;-82
2023/06/05 01:28:12;;;;;;;;;9.00;8.75;;;;;19.31;45.50;101086.38;5053352;28;45812;-81
2023/06/05 01:31:16;;;;;;;;;11.50;7.25;;;;;19.36;45.11;101103.53;5053549;28;46129;-82
2023/06/05 01:33:49;;;;;;;;;8.00;8.00;;;;;19.33;45.26;101100.31;5011065;28;45988;-81
2023/06/05 01:36:15;;;;;;;;;9.50;8.00;;;;;19.29;45.33;101099.78;5010902;28;46144;-82
2023/06/05 01:38:43;;;;;;;;;7.50;7.00;;;;;19.29;45.68;101102.44;4997050;28;45732;-81
2023/06/05 01:41:10;;;;;;;;;8.75;8.00;;;;;19.28;45.31;101098.97;5014605;28;45710;-82
2023/06/05 01:43:36;;;;;;;;;7.00;6.75;;;;;19.26;45.61;101095.63;4998128;28;47878;-81
2023/06/05 01:46:02;;;;;;;;;6.50;6.00;;;;;19.22;45.74;101099.56;5014622;28;46176;-83
2023/06/05 01:48:28;;;;;;;;;7.00;6.25;;;;;19.19;45.58;101093.72;5015050;28;45764;-82
2023/06/05 01:50:58;;;;;;;;;8.00;6.00;;;;;19.19;46.10;101104.34;5015206;28;45669;-81
2023/06/05 01:53:24;;;;;;;;;7.50;5.75;;;;;19.12;46.45;101098.81;5014820;28;45699;-82
2023/06/05 01:55:52;;;;;;;;;6.00;6.00;;;;;19.05;46.39;101096.94;5014626;28;46414;-82
2023/06/05 01:58:18;;;;;;;;;7.00;5.00;;;;;19.01;47.22;101096.38;5015199;28;45529;-82
2023/06/05 02:00:45;;;;;;;;;6.50;6.50;;;;;18.97;47.21;101095.03;5015128;28;45636;-81
2023/06/05 02:03:10;;;;;;;;;7.00;5.00;;;;;18.90;46.69;101083.31;5014499;28;45769;-82
2023/06/05 02:05:36;;;;;;;;;6.00;6.00;;;;;18.88;47.11;101082.66;5014251;28;45776;-82
2023/06/05 02:08:04;;;;;;;;;7.25;6.00;;;;;18.81;46.77;101073.63;5014996;28;45889;-82
2023/06/05 02:10:31;;;;;;;;;6.00;5.00;;;;;18.78;46.88;101085.38;5043187;28;45583;-83
2023/06/05 02:12:56;;;;;;;;;6.50;4.75;;;;;18.77;46.88;101083.72;5056750;28;46614;-82
2023/06/05 02:15:22;;;;;;;;;6.25;5.25;;;;;18.71;46.88;101071.03;5056969;28;46018;-82
2023/06/05 02:21:10;;;;;;;;;6.00;6.00;;;;;18.68;47.04;101079.28;5058008;28;45647;-82
2023/06/05 02:23:35;;;;;;;;;7.75;6.25;;;;;18.66;47.27;101077.78;5061194;28;45613;-83
2023/06/05 02:26:01;;;;;;;;;5.00;4.00;;;;;18.62;47.00;101079.06;5059156;28;46441;-81
2023/06/05 02:28:26;;;;;;;;;5.25;4.75;;;;;18.60;47.04;101084.53;5060452;28;45751;-82
2023/06/05 02:30:53;;;;;;;;;5.50;5.50;;;;;18.56;48.38;101077.84;5057852;28;45497;-80
2023/06/05 02:36:42;;;;;;;;;4.00;4.00;;;;;18.42;48.08;101079.13;5056764;28;45978;-81
2023/06/05 02:39:07;;;;;;;;;5.00;5.00;;;;;18.38;48.63;101071.63;5056671;28;45844;-81
2023/06/05 02:41:33;;;;;;;;;2.50;2.00;;;;;18.34;48.45;101073.75;5057352;28;45490;-82
2023/06/05 02:43:59;;;;;;;;;6.75;5.50;;;;;18.29;48.09;101073.34;5059109;28;45500;-82
2023/06/05 02:46:25;;;;;;;;;5.50;4.00;;;;;18.24;48.19;101067.66;5057407;28;46029;-83
2023/06/05 02:48:51;;;;;;;;;7.00;5.50;;;;;18.24;48.86;101072.13;5056796;28;45861;-80
2023/06/05 02:51:16;;;;;;;;;5.75;5.00;;;;;18.16;48.85;101070.19;5057871;28;45584;-82
2023/06/05 02:53:42;;;;;;;;;8.25;7.00;;;;;18.14;48.73;101076.63;5056245;28;46577;-82
2023/06/05 02:56:07;;;;;;;;;7.75;7.25;;;;;18.13;49.19;101077.63;5055973;28;45937;-83
2023/06/05 02:58:37;;;;;;;;;6.75;6.00;;;;;18.09;49.48;101070.91;5058113;28;45663;-83
2023/06/05 03:01:02;;;;;;;;;8.00;7.00;;;;;18.06;49.18;101066.75;5061342;28;45532;-83
2023/06/05 03:06:53;;;;;;;;;7.00;7.00;;;;;17.96;49.46;101065.97;5044933;28;45965;-81
2023/06/05 03:09:18;;;;;;;;;5.75;5.00;;;;;17.90;49.74;101067.38;5056400;28;45691;-81
2023/06/05 03:11:44;;;;;;;;;6.00;5.50;;;;;17.88;49.42;101069.31;5058011;28;45439;-81
2023/06/05 03:14:10;;;;;;;;;6.00;5.25;;;;;17.85;49.60;101064.31;5061493;28;45603;-82
2023/06/05 03:16:41;;;;;;;;;7.00;6.00;;;;;17.86;49.79;101073.13;5060461;28;48258;-81
2023/06/05 03:19:10;;;;;;;;;7.50;6.25;;;;;17.85;50.41;101069.63;5059593;28;45530;-81
2023/06/05 03:21:37;;;;;;;;;6.00;6.00;;;;;17.79;50.07;101069.34;5057253;28;45741;-82
2023/06/05 03:24:05;;;;;;;;;5.50;5.00;;;;;17.77;50.24;101066.00;5056054;28;45858;-82
2023/06/05 03:26:32;;;;;;;;;6.75;5.25;;;;;17.77;50.45;101072.16;5055568;28;45591;-82
2023/06/05 03:28:57;;;;;;;;;7.50;6.75;;;;;17.75;50.14;101074.13;5056704;28;45577;-82
2023/06/05 03:31:23;;;;;;;;;7.25;6.75;;;;;17.75;50.39;101074.13;5055400;28;45692;-83
2023/06/05 03:37:10;;;;;;;;;7.00;7.00;;;;;17.73;50.47;101077.88;5054911;28;45734;-83
2023/06/05 03:39:35;;;;;;;;;7.25;7.00;;;;;17.71;50.56;101075.38;5055176;28;45954;-82
2023/06/05 03:42:02;;;;;;;;;5.75;5.25;;;;;17.72;51.30;101082.34;5055550;28;45755;-83
2023/06/05 03:44:27;;;;;;;;;6.75;6.25;;;;;17.68;51.13;101080.97;5054538;28;45555;-83
2023/06/05 03:46:52;;;;;;;;;6.00;6.00;;;;;17.66;52.03;101074.13;5054529;28;46262;-82
2023/06/05 03:49:18;;;;;;;;;8.00;8.00;;;;;17.59;51.12;101074.72;5054714;28;45593;-82
2023/06/05 03:51:44;;;;;;;;;7.00;6.75;;;;;17.57;51.92;101071.34;5055073;28;45463;-82
2023/06/05 03:54:12;;;;;;;;;6.50;6.50;;;;;17.52;51.85;101076.22;5054196;28;46458;-83
2023/06/05 03:56:42;;;;;;;;;7.00;6.75;;;;;17.52;52.29;101075.38;5054522;28;46091;-81
2023/06/05 03:59:09;;;;;;;;;7.75;6.75;;;;;17.45;52.21;101059.22;5054002;28;45657;-81
2023/06/05 04:01:38;;;;;;;;;8.00;7.00;;;;;17.44;52.19;101069.94;5053751;28;45511;-81
2023/06/05 04:07:25;;;;;;;;;8.25;7.00;;;;;17.32;53.02;101073.75;5048548;28;46265;-81
2023/06/05 04:09:50;;;;;;;;;7.25;6.00;;;;;17.23;52.84;101071.94;5052832;28;45828;-81
2023/06/05 04:12:20;;;;;;;;;10.50;8.00;;;;;17.23;53.82;101088.66;5054541;28;45877;-81
2023/06/05 04:14:46;;;;;;;;;8.00;8.00;;;;;17.14;53.43;101082.41;5052333;28;46958;-81
2023/06/05 04:17:13;;;;;;;;;9.00;8.00;;;;;17.12;53.14;101081.69;5052612;28;48012;-83
2023/06/05 04:19:39;;;;;;;;;8.50;7.75;;;;;17.11;53.58;101080.00;5054263;28;45524;-83
2023/06/05 04:22:04;;;;;;;;;7.50;7.50;;;;;17.10;53.29;101077.53;5054657;28;45617;-81
2023/06/05 04:24:30;;;;;;;;;8.25;7.00;;;;;17.09;53.76;101083.78;5052321;28;48283;-81
2023/06/05 04:26:55;;;;;;;;;6.00;6.00;;;;;17.09;54.25;101089.94;5069442;28;47080;-81
2023/06/05 04:29:21;;;;;;;;;5.00;4.00;;;;;17.08;53.70;101092.69;5052775;28;46080;-81
2023/06/05 04:31:50;;;;;;;;;7.75;7.50;;;;;17.04;54.25;101092.16;5054145;28;45640;-82
2023/06/05 04:37:38;;;;;;;;;8.25;7.50;;;;;17.02;54.44;101096.75;5053743;28;45749;-81
2023/06/05 04:40:06;;;;;;;;;9.00;8.50;;;;;16.99;54.65;101096.19;5054077;28;45758;-81
2023/06/05 04:42:33;;;;;;;;;10.50;9.25;;;;;16.98;53.86;101091.88;5053993;28;45922;-81
2023/06/05 04:45:03;;;;;;;;;9.50;7.00;;;;;16.99;54.36;101093.53;5053379;28;45612;-82
2023/06/05 04:47:29;;;;;;;;;10.25;9.50;;;;;16.97;54.46;101092.84;5053474;28;46343;-78
2023/06/05 04:49:58;;;;;;;;;12.50;9.00;;;;;17.00;54.07;101100.50;5053666;28;45761;-81
2023/06/05 04:52:23;;;;;;;;;8.25;7.00;;;;;17.01;53.86;101100.34;5053572;28;45747;-80
2023/06/05 04:54:49;;;;;;;;;10.75;9.75;;;;;17.02;54.28;101095.91;5052938;28;46351;-78
2023/06/05 04:57:19;;;;;;;;;9.00;7.75;;;;;17.03;54.25;101092.28;5053211;28;45710;-79
2023/06/05 04:59:45;;;;;;;;;12.25;10.50;;;;;17.03;54.85;101095.78;5051716;28;45681;-78
2023/06/05 05:02:11;;;;;;;;;11.75;9.75;;;;;17.00;55.05;101101.34;5053371;28;45677;-78
2023/06/05 05:08:08;;;;;;;;;12.00;10.50;;;;;16.97;55.17;101098.97;5046544;28;45756;-82
2023/06/05 05:10:34;;;;;;;;;9.25;9.00;;;;;16.97;54.76;101100.78;5053498;28;45782;-79
2023/06/05 05:13:01;;;;;;;;;8.75;8.50;;;;;17.00;55.03;101095.22;5056666;28;45674;-79
2023/06/05 05:15:31;;;;;;;;;9.50;9.00;;;;;16.97;55.04;101098.13;5056357;28;45666;-78
2023/06/05 05:17:56;;;;;;;;;10.75;10.50;;;;;16.98;54.89;101097.16;5056991;28;46445;-81
2023/06/05 05:20:22;;;;;;;;;14.75;9.75;;;;;17.00;55.29;101100.50;5058065;28;45550;-77
2023/06/05 05:22:48;;;;;;;;;9.00;9.00;;;;;17.00;55.54;101097.88;5056902;28;45611;-76
2023/06/05 05:25:13;;;;;;;;;13.75;13.75;;;;;16.96;55.24;101099.09;5055976;28;46300;-77
2023/06/05 05:27:39;;;;;;;;;9.50;9.00;;;;;16.93;55.76;101097.56;5056610;28;45725;-78
2023/06/05 05:30:06;;;;;;;;;14.50;11.00;;;;;16.90;55.46;101102.28;5056465;28;45540;-77
2023/06/05 05:32:31;;;;;;;;;13.00;11.75;;;;;16.90;56.21;101108.41;5056194;28;45767;-76
2023/06/05 05:38:18;;;;;;;;;14.50;12.25;;;;;16.86;56.05;101106.19;5056148;28;46314;-80
2023/06/05 05:40:43;;;;;;;;;13.50;12.00;;;;;16.82;56.43;101110.94;5056403;27;45604;-78
2023/06/05 05:43:09;;;;;;;;;14.25;12.25;;;;;16.80;56.25;101107.56;5056466;28;45564;-78
2023/06/05 05:45:38;;;;;;;;;13.25;11.75;;;;;16.81;56.28;101105.78;5055537;28;46425;-77
2023/06/05 05:48:03;;;;;;;;;10.00;10.00;;;;;16.78;56.19;101096.31;5056282;28;46472;-75
2023/06/05 05:50:29;;;;;;;;;11.25;10.50;;;;;16.83;55.72;101117.91;5056335;28;45698;-77
2023/06/05 05:52:54;;;;;;;;;13.00;11.50;;;;;16.85;55.83;101113.28;5056481;28;45470;-77
2023/06/05 05:55:20;;;;;;;;;10.50;10.50;;;;;16.87;55.87;101115.81;5055793;28;45556;-78
2023/06/05 05:57:45;;;;;;;;;12.00;12.00;;;;;16.87;55.92;101108.72;5055950;28;45731;-79
2023/06/05 06:00:12;;;;;;;;;15.00;13.00;;;;;16.91;56.22;101115.41;5056093;28;45470;-77
2023/06/05 06:02:41;;;;;;;;;13.75;13.00;;;;;16.94;55.64;101120.44;5056322;28;45663;-77
2023/06/05 06:08:28;;;;;;;;;13.75;11.50;;;;;16.96;56.00;101121.13;5051429;28;45824;-78
2023/06/05 06:10:55;;;;;;;;;8.75;8.00;;;;;16.98;56.09;101127.13;5056156;28;45632;-82
2023/06/05 06:13:20;;;;;;;;;10.75;9.25;;;;;16.97;56.20;101129.91;5056031;28;45694;-78
2023/06/05 06:15:46;;;;;;;;;14.00;10.50;;;;;16.97;55.86;101120.16;5056551;28;46027;-77
2023/06/05 06:18:12;;;;;;;;;10.75;9.00;;;;;16.99;55.92;101112.06;5059923;28;45689;-77
2023/06/05 06:23:59;;;;;;;;;13.25;11.25;;;;;17.07;56.02;101126.28;5054714;28;45699;-78
2023/06/05 06:26:26;;;;;;;;;14.00;12.00;;;;;17.10;55.71;101131.31;5055691;28;46258;-78
2023/06/05 06:28:52;;;;;;;;;19.00;14.00;;;;;17.12;55.71;101128.50;5055701;28;46044;-77
2023/06/05 06:31:17;;;;;;;;;13.50;12.50;;;;;17.14;55.77;101124.75;5055737;28;45653;-78
2023/06/05 06:33:44;;;;;;;;;13.50;11.50;;;;;17.18;55.35;101125.31;5055765;28;45455;-77
2023/06/05 06:36:10;;;;;;;;;13.00;12.50;;;;;17.22;55.65;101128.53;5055671;28;46604;-78
2023/06/05 06:38:35;;;;;;;;;14.75;12.75;;;;;17.26;55.35;101129.94;5063376;28;45510;-76
2023/06/05 06:41:01;;;;;;;;;13.25;12.25;;;;;17.28;55.07;101127.94;5061430;28;45862;-76
2023/06/05 06:43:26;;;;;;;;;14.25;12.50;;;;;17.32;55.38;101119.63;5059961;28;45726;-76
2023/06/05 06:45:52;;;;;;;;;16.00;12.25;;;;;17.37;54.96;101129.78;5057440;28;46343;-76
2023/06/05 06:48:18;;;;;;;;;13.00;11.25;;;;;17.38;55.04;101132.28;5057114;28;46131;-75
2023/06/05 06:54:05;;;;;;;;;14.50;13.00;;;;;17.42;54.76;101128.41;5055229;28;45692;-76
2023/06/05 06:56:31;;;;;;;;;13.75;13.00;;;;;17.44;55.02;101134.38;5055111;28;46138;-77
2023/06/05 06:58:57;;;;;;;;;10.50;9.75;;;;;17.44;54.84;101133.53;5055214;28;45811;-77
2023/06/05 07:01:23;;;;;;;;;11.00;10.75;;;;;17.44;54.41;101134.38;5055112;28;45780;-76
2023/06/05 07:03:49;;;;;;;;;14.50;12.25;;;;;17.48;54.83;101127.00;5055150;28;45653;-76
2023/06/05 07:06:15;;;;;;;;;13.25;11.75;;;;;17.48;54.62;101125.19;5055060;28;46236;-77
2023/06/05 07:08:40;;;;;;;;;13.25;13.25;;;;;17.50;54.52;101133.81;5054719;28;46032;-75
2023/06/05 07:11:06;;;;;;;;;12.75;11.25;;;;;17.55;54.51;101130.72;5055218;28;45965;-76
2023/06/05 07:13:31;;;;;;;;;14.75;12.25;;;;;17.56;54.54;101133.25;5070748;28;45553;-77
2023/06/05 07:15:57;;;;;;;;;11.00;10.25;;;;;17.59;54.39;101135.66;5054523;28;46310;-76
2023/06/05 07:18:22;;;;;;;;;13.50;12.50;;;;;17.66;54.10;101135.91;5054898;28;46077;-76
2023/06/05 07:24:09;;;;;;;;;15.25;12.50;;;;;17.78;53.97;101144.56;5054494;28;45630;-76
2023/06/05 07:26:35;;;;;;;;;14.50;12.00;;;;;17.81;54.00;101136.34;5054650;28;46577;-76
2023/06/05 07:29:01;;;;;;;;;12.50;11.00;;;;;17.84;53.80;101146.63;5054871;28;46094;-76
2023/06/05 07:31:26;;;;;;;;;12.50;11.25;;;;;17.90;53.21;101146.06;5054843;28;45585;-76
2023/06/05 07:33:52;;;;;;;;;14.50;12.50;;;;;17.92;53.26;101136.16;5054712;28;45672;-76
2023/06/05 07:39:39;;;;;;;;;14.00;12.75;;;;;18.04;53.22;101133.19;5054348;28;46148;-76
2023/06/05 07:42:05;;;;;;;;;11.00;9.75;;;;;18.10;52.98;101147.69;5054765;28;45797;-76
2023/06/05 07:44:31;;;;;;;;;11.50;10.25;;;;;18.11;53.01;101136.09;5054701;28;45819;-76
2023/06/05 07:46:56;;;;;;;;;17.75;13.00;;;;;18.17;52.96;101134.69;5054536;28;46518;-76
2023/06/05 07:49:23;;;;;;;;;13.75;12.50;;;;;18.22;52.77;101138.56;5054505;28;46328;-76
2023/06/05 07:51:50;;;;;;;;;14.75;13.00;;;;;18.27;52.47;101130.19;5054477;28;45548;-75
2023/06/05 07:54:16;;;;;;;;;11.25;9.25;;;;;18.31;52.70;101129.75;5054002;28;45656;-76
2023/06/05 07:56:41;;;;;;;;;15.50;13.25;;;;;18.36;52.35;101142.56;5052620;28;47870;-76
2023/06/05 07:59:07;;;;;;;;;12.00;11.00;;;;;18.37;52.30;101141.59;5054205;28;45679;-76
2023/06/05 08:01:36;;;;;;;;;12.00;11.00;;;;;18.39;51.83;101134.31;5069740;28;45826;-76
2023/06/05 08:04:06;;;;;;;;;12.50;10.75;;;;;18.41;52.54;101135.00;5054148;28;45525;-75
2023/06/05 08:09:53;;;;;;;;;12.75;12.00;;;;;18.52;51.70;101126.00;5043090;28;45786;-75
2023/06/05 08:12:19;;;;;;;;;11.25;10.50;;;;;18.56;51.57;101124.78;5054247;28;45850;-76
2023/06/05 08:14:44;;;;;;;;;12.25;11.50;;;;;18.63;51.67;101131.16;5053840;28;45652;-76
2023/06/05 08:17:10;;;;;;;;;12.00;11.50;;;;;18.68;51.54;101131.53;5053945;28;45559;-76
2023/06/05 08:19:36;;;;;;;;;11.00;11.00;;;;;18.74;51.35;101126.47;5053859;28;45518;-76
2023/06/05 08:22:01;;;;;;;;;13.00;11.75;;;;;18.79;51.51;101123.38;5054143;28;45596;-77
2023/06/05 08:24:28;;;;;;;;;12.75;11.00;;;;;18.88;50.64;101124.31;5053935;28;45644;-77
2023/06/05 08:26:54;;;;;;;;;13.00;12.00;;;;;18.95;50.70;101128.84;5053454;28;46525;-76
2023/06/05 08:29:19;;;;;;;;;9.75;9.50;;;;;19.00;51.06;101123.13;5053834;28;45641;-76
2023/06/05 08:31:45;;;;;;;;;13.25;12.25;;;;;19.03;51.00;101118.31;5053820;28;45637;-76
2023/06/05 08:34:10;;;;;;;;;13.25;10.75;;;;;19.12;50.68;101130.69;5053699;28;45573;-77
2023/06/05 08:39:59;;;;;;;;;13.00;11.00;;;;;19.25;50.83;101122.34;5053486;28;46140;-76
2023/06/05 08:42:28;;;;;;;;;10.00;10.00;;;;;19.29;50.44;101129.03;5053715;28;45697;-76
2023/06/05 08:44:54;;;;;;;;;13.50;11.00;;;;;19.37;50.36;101128.28;5053421;28;45711;-76
2023/06/05 08:47:23;;;;;;;;;10.75;10.50;;;;;19.41;50.37;101141.09;5052934;28;46670;-76
2023/06/05 08:49:53;;;;;;;;;11.50;10.00;;;;;19.46;49.77;101128.22;5053519;28;46105;-76
2023/06/05 08:52:22;;;;;;;;;12.00;12.00;;;;;19.48;50.09;101120.94;5053770;28;45492;-77
2023/06/05 08:54:47;;;;;;;;;12.25;12.25;;;;;19.54;49.80;101125.59;5053497;28;45615;-76
2023/06/05 08:57:13;;;;;;;;;13.00;11.50;;;;;19.56;50.09;101123.63;5053526;28;46505;-77
2023/06/05 08:59:40;;;;;;;;;10.75;10.25;;;;;19.65;49.57;101125.34;5053988;28;45895;-75
2023/06/05 09:02:05;;;;;;;;;11.00;10.00;;;;;19.70;49.48;101124.91;5056146;28;45622;-75
2023/06/05 09:04:31;;;;;;;;;12.75;9.75;;;;;19.77;49.63;101123.28;5056849;28;45623;-76
2023/06/05 09:10:22;;;;;;;;;11.25;10.75;;;;;19.93;48.68;101126.06;5050901;28;45794;-76
2023/06/05 09:13:02;;;;;;;;;10.75;9.25;;;;;19.98;48.92;101120.25;5054160;28;45557;-75
2023/06/05 09:15:31;;;;;;;;;11.00;10.00;;;;;20.04;48.64;101119.63;5053727;28;45493;-75
2023/06/05 09:18:08;;;;;;;;;14.00;12.00;;;;;20.06;48.63;101110.53;5053575;28;45564;-74
2023/06/05 09:20:37;;;;;;;;;13.25;11.75;;;;;20.16;48.38;101122.88;5053066;28;45942;-78
2023/06/05 09:23:04;;;;;;;;;9.25;9.00;;;;;20.19;48.10;101110.06;5053367;28;45725;-75
2023/06/05 09:25:45;;;;;;;;;11.75;10.00;;;;;20.29;48.45;101109.97;5052814;28;45651;-77
2023/06/05 09:28:10;;;;;;;;;12.00;11.00;;;;;20.36;48.09;101111.00;5053078;28;46449;-77
2023/06/05 09:30:57;;;;;;;;;12.25;10.75;;;;;20.42;47.77;101113.03;5053182;28;45549;-75
2023/06/05 09:33:25;;;;;;;;;12.00;11.75;;;;;20.46;47.87;101117.03;5052731;28;45725;-76
2023/06/05 09:36:07;;;;;;;;;11.50;11.50;;;;;20.53;47.48;101108.25;5052670;28;45671;-75
2023/06/05 09:38:34;;;;;;;;;10.50;10.00;;;;;20.59;47.42;101112.09;5052828;28;45566;-79
2023/06/05 09:41:03;;;;;;;;;10.75;10.75;;;;;20.64;47.14;101107.13;5053333;28;46087;-76
2023/06/05 09:43:29;;;;;;;;;12.25;11.25;;;;;20.69;47.38;101098.66;5052796;28;45517;-77
2023/06/05 09:45:54;;;;;;;;;11.50;10.25;;;;;20.75;47.09;101108.66;5052495;28;45464;-77
2023/06/05 09:48:20;;;;;;;;;14.25;12.00;;;;;20.80;46.47;101098.34;5052871;28;45618;-75
2023/06/05 09:50:45;;;;;;;;;11.25;11.00;;;;;20.86;46.60;101092.38;5052593;28;46204;-75
2023/06/05 09:53:15;;;;;;;;;10.25;8.50;;;;;20.94;46.68;101095.06;5052589;28;46016;-77
2023/06/05 09:55:41;;;;;;;;;9.50;8.25;;;;;21.02;46.73;101096.88;5052471;28;45576;-76
2023/06/05 09:58:13;;;;;;;;;10.75;10.50;;;;;21.05;46.24;101096.56;5053177;28;45617;-76
2023/06/05 10:00:41;;;;;;;;;11.50;11.00;;;;;21.14;46.05;101100.91;5055949;28;46002;-76
2023/06/05 10:03:13;;;;;;;;;11.00;9.75;;;;;21.19;45.37;101091.44;5056171;28;45568;-75
2023/06/05 10:05:42;;;;;;;;;9.75;9.00;;;;;21.24;45.79;101099.78;5054186;28;45683;-77
2023/06/05 10:08:08;;;;;;;;;9.50;8.75;;;;;21.30;45.70;101095.63;5056213;28;46311;-79
2023/06/05 10:10:36;;;;;;;;;9.75;9.25;;;;;21.38;45.67;101094.78;5055531;28;46694;-79
2023/06/05 10:13:02;;;;;;;;;9.00;9.00;;;;;21.43;45.39;101092.47;5056087;28;45722;-78
2023/06/05 10:15:28;;;;;;;;;11.00;9.00;;;;;21.46;45.41;101090.28;5055714;28;45659;-78
2023/06/05 10:17:54;;;;;;;;;10.50;10.50;;;;;21.53;45.04;101085.13;5055803;28;46663;-76
2023/06/05 10:20:21;;;;;;;;;11.50;10.00;;;;;21.60;44.66;101081.59;5056199;28;45569;-77
2023/06/05 10:22:50;;;;;;;;;9.00;9.00;;;;;21.69;44.36;101091.25;5056165;28;45643;-77
2023/06/05 10:25:19;;;;;;;;;11.25;9.00;;;;;21.73;43.33;101083.75;5055691;28;45506;-77
2023/06/05 10:28:05;;;;;;;;;8.75;7.50;;;;;21.81;43.35;101089.03;5055649;28;45636;-78
2023/06/05 10:30:47;;;;;;;;;10.25;8.25;;;;;21.90;43.44;101090.72;5055782;28;46036;-78
2023/06/05 10:33:29;;;;;;;;;8.50;8.50;;;;;21.97;42.29;101083.69;5055709;28;45624;-78
2023/06/05 10:36:24;;;;;;;;;8.50;8.00;;;;;22.06;42.80;101077.34;5054024;28;45832;-80
2023/06/05 10:38:51;;;;;;;;;8.75;8.75;;;;;22.13;41.75;101082.84;5055676;28;45685;-76
2023/06/05 10:41:17;;;;;;;;;9.25;8.00;;;;;22.19;40.66;101087.47;5055645;28;46295;-78
2023/06/05 10:43:52;;;;;;;;;8.50;8.25;;;;;22.27;40.73;101066.09;5055689;28;45724;-77
2023/06/05 10:46:33;;;;;;;;;9.75;9.25;;;;;22.34;39.77;101080.41;5055676;28;45799;-77
2023/06/05 10:49:05;;;;;;;;;7.00;6.50;;;;;22.41;40.40;101080.53;5055294;28;46423;-79
2023/06/05 10:51:39;;;;;;;;;8.00;7.50;;;;;22.47;38.38;101070.00;5055277;28;46629;-77
2023/06/05 10:54:06;;;;;;;;;7.00;7.00;;;;;22.52;38.29;101066.78;5055399;28;45627;-77
2023/06/05 10:56:57;;;;;;;;;7.50;7.25;;;;;22.60;38.94;101056.91;5055327;28;45720;-77
2023/06/05 10:59:25;;;;;;;;;9.00;8.25;;;;;22.68;38.65;101057.84;5055720;28;46293;-78
2023/06/05 11:02:09;;;;;;;;;7.50;7.00;;;;;22.75;38.67;101054.34;5055560;28;45937;-78
2023/06/05 11:04:46;;;;;;;;;8.25;8.00;;;;;22.82;39.01;101059.81;5054973;28;45683;-80
2023/06/05 11:07:22;;;;;;;;;9.50;9.00;;;;;22.87;38.12;101052.09;5055067;28;45574;-79
2023/06/05 11:10:04;;;;;;;;;10.50;9.00;;;;;22.94;38.77;101045.03;5052818;28;47474;-77
2023/06/05 11:12:35;;;;;;;;;9.50;8.75;;;;;22.99;38.38;101056.84;5054956;28;45808;-77
2023/06/05 11:15:04;;;;;;;;;6.75;6.75;;;;;23.06;37.90;101040.91;5054751;28;45685;-78
2023/06/05 11:17:32;;;;;;;;;10.50;9.75;;;;;23.11;38.39;101037.69;5055338;28;45639;-78
2023/06/05 11:19:58;;;;;;;;;8.50;8.50;;;;;23.17;37.33;101035.13;5055868;28;46446;-79
2023/06/05 11:22:23;;;;;;;;;9.50;8.25;;;;;23.23;37.06;101037.09;5058503;28;45652;-75
2023/06/05 11:25:13;;;;;;;;;8.50;8.00;;;;;23.32;36.83;101033.31;5058640;28;45525;-75
2023/06/05 11:27:41;;;;;;;;;8.50;8.50;;;;;23.40;37.48;101035.94;5058306;28;45613;-76
2023/06/05 11:30:15;;;;;;;;;9.25;8.25;;;;;23.46;37.22;101037.09;5057807;28;47091;-76
2023/06/05 11:32:41;;;;;;;;;9.25;9.00;;;;;23.53;37.14;101034.50;5054879;28;47085;-77
2023/06/05 11:35:08;;;;;;;;;8.75;8.00;;;;;23.57;36.52;101025.94;5055188;28;45693;-76
2023/06/05 11:37:34;;;;;;;;;8.25;7.00;;;;;23.59;36.03;101031.91;5053656;28;45624;-76
2023/06/05 11:40:11;;;;;;;;;8.75;8.50;;;;;23.65;35.64;101035.72;5055212;28;46797;-77
2023/06/05 11:42:38;;;;;;;;;6.25;5.25;;;;;23.66;34.80;101032.84;5054516;28;46088;-76
2023/06/05 11:45:11;;;;;;;;;8.75;7.00;;;;;23.71;35.63;101016.25;5054300;28;45687;-76
2023/06/05 11:47:37;;;;;;;;;7.50;7.50;;;;;23.77;35.51;101019.03;5054753;28;45753;-76
2023/06/05 11:50:11;;;;;;;;;8.00;8.00;;;;;23.86;35.63;101009.03;5054346;28;46772;-77
2023/06/05 11:52:38;;;;;;;;;9.25;8.00;;;;;23.91;35.00;101011.19;5054408;28;45977;-76
2023/06/05 11:55:22;;;;;;;;;9.00;8.00;;;;;23.97;34.72;101005.88;5053991;28;45595;-77
2023/06/05 11:57:49;;;;;;;;;8.50;7.50;;;;;24.02;34.30;101003.47;5054610;28;45611;-76
2023/06/05 12:00:16;;;;;;;;;8.50;8.50;;;;;24.07;34.49;101008.31;5054206;28;45717;-78
2023/06/05 12:02:42;;;;;;;;;6.25;6.00;;;;;24.11;35.11;101005.06;5054454;28;46141;-78
2023/06/05 12:05:11;;;;;;;;;8.00;8.00;;;;;24.17;32.30;101014.19;5053892;28;45828;-77
2023/06/05 12:07:39;;;;;;;;;9.25;8.00;;;;;24.16;32.73;101005.31;5054396;28;45610;-78
2023/06/05 12:10:08;;;;;;;;;6.00;6.00;;;;;24.17;31.69;101012.38;5054890;28;45566;-76
2023/06/05 12:12:34;;;;;;;;;8.25;7.75;;;;;24.19;31.82;100998.78;5054100;28;47821;-77
2023/06/05 12:15:16;;;;;;;;;7.50;7.50;;;;;24.25;32.96;101003.38;5053839;28;45664;-77
2023/06/05 12:17:49;;;;;;;;;7.50;6.75;;;;;24.30;32.88;101005.50;5054585;28;45598;-77
2023/06/05 12:20:15;;;;;;;;;6.25;5.75;;;;;24.36;32.20;101008.25;5053869;28;46361;-77
2023/06/05 12:22:41;;;;;;;;;7.00;7.00;;;;;24.40;31.10;101003.38;5053333;28;45728;-78
2023/06/05 12:25:22;;;;;;;;;7.00;7.00;;;;;24.42;31.78;101001.31;5053826;28;45612;-76